sensor_id;sensor_type;location;lat;lon;timestamp;pressure;altitude;pressure_sealevel;temperature;humidity
21742;BME280;11033;47.490;11.116;2022-11-20T00:00:37;92563.78;;;3.17;83.50
21742;BME280;11033;47.490;11.116;2022-11-20T00:03:03;92564.09;;;3.14;83.51
21742;BME280;11033;47.490;11.116;2022-11-20T00:05:28;92565.41;;;3.18;83.63
21742;BME280;11033;47.490;11.116;2022-11-20T00:07:53;92574.22;;;3.26;83.41
21742;BME280;11033;47.490;11.116;2022-11-20T00:10:18;92580.91;;;3.28;84.11
21742;BME280;11033;47.490;11.116;2022-11-20T00:12:44;92570.50;;;3.28;83.20
21742;BME280;11033;47.490;11.116;2022-11-20T00:15:09;92573.28;;;3.35;82.30
21742;BME280;11033;47.490;11.116;2022-11-20T00:17:35;92575.88;;;3.35;82.46
21742;BME280;11033;47.490;11.116;2022-11-20T00:20:00;92577.00;;;3.32;82.91
21742;BME280;11033;47.490;11.116;2022-11-20T00:22:25;92576.84;;;3.34;82.43
21742;BME280;11033;47.490;11.116;2022-11-20T00:24:51;92571.31;;;3.37;83.06
21742;BME280;11033;47.490;11.116;2022-11-20T00:27:16;92583.34;;;3.38;82.75
21742;BME280;11033;47.490;11.116;2022-11-20T00:29:41;92584.34;;;3.45;81.85
21742;BME280;11033;47.490;11.116;2022-11-20T00:32:06;92581.72;;;3.45;83.02
21742;BME280;11033;47.490;11.116;2022-11-20T00:34:32;92579.47;;;3.42;82.04
21742;BME280;11033;47.490;11.116;2022-11-20T00:36:57;92582.06;;;3.42;82.88
21742;BME280;11033;47.490;11.116;2022-11-20T00:39:22;92581.41;;;3.48;82.02
21742;BME280;11033;47.490;11.116;2022-11-20T00:41:47;92586.28;;;3.43;82.17
21742;BME280;11033;47.490;11.116;2022-11-20T00:44:13;92592.13;;;3.37;83.76
21742;BME280;11033;47.490;11.116;2022-11-20T00:46:38;92595.41;;;3.47;84.12
21742;BME280;11033;47.490;11.116;2022-11-20T00:49:03;92593.13;;;3.52;83.31
21742;BME280;11033;47.490;11.116;2022-11-20T00:51:29;92600.63;;;3.55;82.02
21742;BME280;11033;47.490;11.116;2022-11-20T00:53:55;92599.63;;;3.48;84.42
21742;BME280;11033;47.490;11.116;2022-11-20T00:56:21;92604.50;;;3.51;83.58
21742;BME280;11033;47.490;11.116;2022-11-20T00:58:48;92606.47;;;3.49;83.72
21742;BME280;11033;47.490;11.116;2022-11-20T01:01:16;92602.25;;;3.48;84.09
21742;BME280;11033;47.490;11.116;2022-11-20T01:03:44;92601.09;;;3.50;83.23
21742;BME280;11033;47.490;11.116;2022-11-20T01:06:24;92598.00;;;3.55;82.10
21742;BME280;11033;47.490;11.116;2022-11-20T01:08:51;92608.75;;;3.52;83.08
21742;BME280;11033;47.490;11.116;2022-11-20T01:11:19;92613.63;;;3.55;82.71
21742;BME280;11033;47.490;11.116;2022-11-20T01:13:46;92617.22;;;3.54;82.51
21742;BME280;11033;47.490;11.116;2022-11-20T01:18:44;92619.50;;;3.65;82.86
21742;BME280;11033;47.490;11.116;2022-11-20T01:21:13;92621.59;;;3.62;82.95
21742;BME280;11033;47.490;11.116;2022-11-20T01:23:40;92616.56;;;3.52;84.67
21742;BME280;11033;47.490;11.116;2022-11-20T01:26:10;92612.34;;;3.67;82.00
21742;BME280;11033;47.490;11.116;2022-11-20T01:28:37;92620.81;;;3.69;82.01
21742;BME280;11033;47.490;11.116;2022-11-20T01:31:22;92622.75;;;3.51;84.23
21742;BME280;11033;47.490;11.116;2022-11-20T01:33:50;92626.66;;;3.63;83.75
21742;BME280;11033;47.490;11.116;2022-11-20T01:36:17;92629.75;;;3.67;83.05
21742;BME280;11033;47.490;11.116;2022-11-20T01:38:43;92628.28;;;3.64;83.63
21742;BME280;11033;47.490;11.116;2022-11-20T01:41:09;92617.38;;;3.61;84.08
21742;BME280;11033;47.490;11.116;2022-11-20T01:43:35;92617.88;;;3.64;82.63
21742;BME280;11033;47.490;11.116;2022-11-20T01:46:18;92622.44;;;3.70;82.92
21742;BME280;11033;47.490;11.116;2022-11-20T01:51:21;92622.59;;;3.69;82.92
21742;BME280;11033;47.490;11.116;2022-11-20T01:53:49;92624.22;;;3.70;83.13
21742;BME280;11033;47.490;11.116;2022-11-20T01:56:16;92624.38;;;3.68;83.75
21742;BME280;11033;47.490;11.116;2022-11-20T01:58:48;92625.03;;;3.70;83.57
21742;BME280;11033;47.490;11.116;2022-11-20T02:01:16;92625.84;;;3.71;83.65
21742;BME280;11033;47.490;11.116;2022-11-20T02:03:42;92625.69;;;3.72;84.08
21742;BME280;11033;47.490;11.116;2022-11-20T02:08:43;92632.38;;;3.83;82.33
21742;BME280;11033;47.490;11.116;2022-11-20T02:11:08;92627.31;;;3.81;82.58
21742;BME280;11033;47.490;11.116;2022-11-20T02:13:34;92627.00;;;3.76;83.30
21742;BME280;11033;47.490;11.116;2022-11-20T02:16:39;92628.44;;;3.71;84.20
21742;BME280;11033;47.490;11.116;2022-11-20T02:19:09;92628.94;;;3.74;82.80
21742;BME280;11033;47.490;11.116;2022-11-20T02:21:47;92622.91;;;3.82;81.84
21742;BME280;11033;47.490;11.116;2022-11-20T02:24:16;92626.00;;;3.86;81.40
21742;BME280;11033;47.490;11.116;2022-11-20T02:26:51;92620.47;;;3.89;81.96
21742;BME280;11033;47.490;11.116;2022-11-20T02:29:26;92623.91;;;3.81;82.93
21742;BME280;11033;47.490;11.116;2022-11-20T02:31:53;92624.53;;;3.75;83.94
21742;BME280;11033;47.490;11.116;2022-11-20T02:34:20;92614.28;;;3.81;82.62
21742;BME280;11033;47.490;11.116;2022-11-20T02:36:46;92617.38;;;3.77;83.32
21742;BME280;11033;47.490;11.116;2022-11-20T02:39:13;92620.97;;;3.68;85.10
21742;BME280;11033;47.490;11.116;2022-11-20T02:41:42;92618.53;;;3.66;85.33
21742;BME280;11033;47.490;11.116;2022-11-20T02:44:07;92622.25;;;3.80;82.92
21742;BME280;11033;47.490;11.116;2022-11-20T02:46:33;92613.97;;;3.85;83.05
21742;BME280;11033;47.490;11.116;2022-11-20T02:48:58;92612.53;;;3.90;81.71
21742;BME280;11033;47.490;11.116;2022-11-20T02:51:24;92611.19;;;3.86;81.10
21742;BME280;11033;47.490;11.116;2022-11-20T02:53:50;92614.94;;;3.83;81.57
21742;BME280;11033;47.490;11.116;2022-11-20T02:56:15;92609.56;;;3.85;81.65
21742;BME280;11033;47.490;11.116;2022-11-20T02:58:40;92608.75;;;3.85;81.96
21742;BME280;11033;47.490;11.116;2022-11-20T03:01:06;92613.16;;;3.84;82.79
21742;BME280;11033;47.490;11.116;2022-11-20T03:03:31;92611.53;;;3.83;82.64
21742;BME280;11033;47.490;11.116;2022-11-20T03:05:58;92613.47;;;3.81;83.58
21742;BME280;11033;47.490;11.116;2022-11-20T03:08:24;92607.13;;;3.83;83.80
21742;BME280;11033;47.490;11.116;2022-11-20T03:10:49;92606.81;;;3.78;83.54
21742;BME280;11033;47.490;11.116;2022-11-20T03:13:14;92604.69;;;3.82;82.48
21742;BME280;11033;47.490;11.116;2022-11-20T03:15:40;92612.00;;;3.78;82.97
21742;BME280;11033;47.490;11.116;2022-11-20T03:18:05;92610.72;;;3.66;85.64
21742;BME280;11033;47.490;11.116;2022-11-20T03:20:32;92610.88;;;3.73;84.46
21742;BME280;11033;47.490;11.116;2022-11-20T03:22:57;92605.19;;;3.69;84.29
21742;BME280;11033;47.490;11.116;2022-11-20T03:25:23;92611.19;;;3.70;85.25
21742;BME280;11033;47.490;11.116;2022-11-20T03:27:48;92610.38;;;3.69;85.33
21742;BME280;11033;47.490;11.116;2022-11-20T03:30:14;92605.19;;;3.69;84.69
21742;BME280;11033;47.490;11.116;2022-11-20T03:32:39;92614.44;;;3.72;84.25
21742;BME280;11033;47.490;11.116;2022-11-20T03:35:05;92612.19;;;3.77;83.58
21742;BME280;11033;47.490;11.116;2022-11-20T03:37:31;92608.75;;;3.76;83.75
21742;BME280;11033;47.490;11.116;2022-11-20T03:39:57;92611.38;;;3.76;83.53
21742;BME280;11033;47.490;11.116;2022-11-20T03:42:22;92618.69;;;3.57;86.39
21742;BME280;11033;47.490;11.116;2022-11-20T03:45:06;92614.13;;;3.59;87.11
21742;BME280;11033;47.490;11.116;2022-11-20T03:47:31;92615.59;;;3.53;87.04
21742;BME280;11033;47.490;11.116;2022-11-20T03:49:57;92626.66;;;3.63;85.69
21742;BME280;11033;47.490;11.116;2022-11-20T03:52:22;92618.53;;;3.66;85.60
21742;BME280;11033;47.490;11.116;2022-11-20T03:54:47;92615.59;;;3.69;84.50
21742;BME280;11033;47.490;11.116;2022-11-20T03:57:13;92628.44;;;3.71;84.34
21742;BME280;11033;47.490;11.116;2022-11-20T03:59:38;92625.69;;;3.72;84.23
21742;BME280;11033;47.490;11.116;2022-11-20T04:02:03;92628.13;;;3.66;84.95
21742;BME280;11033;47.490;11.116;2022-11-20T04:04:28;92632.34;;;3.67;85.96
21742;BME280;11033;47.490;11.116;2022-11-20T04:06:54;92626.34;;;3.74;84.16
21742;BME280;11033;47.490;11.116;2022-11-20T04:09:19;92623.09;;;3.72;84.25
21742;BME280;11033;47.490;11.116;2022-11-20T04:11:44;92625.34;;;3.75;84.07
21742;BME280;11033;47.490;11.116;2022-11-20T04:14:14;92624.06;;;3.71;84.34
21742;BME280;11033;47.490;11.116;2022-11-20T04:16:40;92620.97;;;3.76;83.66
21742;BME280;11033;47.490;11.116;2022-11-20T04:19:13;92630.91;;;3.72;84.83
21742;BME280;11033;47.490;11.116;2022-11-20T04:21:39;92628.63;;;3.77;83.50
21742;BME280;11033;47.490;11.116;2022-11-20T04:24:05;92639.53;;;3.73;85.36
21742;BME280;11033;47.490;11.116;2022-11-20T04:26:31;92626.81;;;3.62;86.74
21742;BME280;11033;47.490;11.116;2022-11-20T04:28:57;92638.38;;;3.67;85.66
21742;BME280;11033;47.490;11.116;2022-11-20T04:31:25;92628.13;;;3.66;85.06
21742;BME280;11033;47.490;11.116;2022-11-20T04:33:51;92624.38;;;3.68;84.30
21742;BME280;11033;47.490;11.116;2022-11-20T04:36:22;92624.88;;;3.64;85.42
21742;BME280;11033;47.490;11.116;2022-11-20T04:38:51;92621.78;;;3.60;85.82
21742;BME280;11033;47.490;11.116;2022-11-20T04:41:18;92621.13;;;3.58;84.57
21742;BME280;11033;47.490;11.116;2022-11-20T04:43:52;92619.50;;;3.65;84.57
21742;BME280;11033;47.490;11.116;2022-11-20T04:46:19;92620.16;;;3.67;84.06
21742;BME280;11033;47.490;11.116;2022-11-20T04:48:46;92619.50;;;3.57;85.26
21742;BME280;11033;47.490;11.116;2022-11-20T04:51:12;92619.47;;;3.49;85.33
21742;BME280;11033;47.490;11.116;2022-11-20T04:53:37;92617.53;;;3.51;85.32
21742;BME280;11033;47.490;11.116;2022-11-20T04:56:05;92616.56;;;3.52;84.43
21742;BME280;11033;47.490;11.116;2022-11-20T04:58:31;92617.53;;;3.51;84.89
21742;BME280;11033;47.490;11.116;2022-11-20T05:01:04;92618.66;;;3.48;84.45
21742;BME280;11033;47.490;11.116;2022-11-20T05:03:30;92620.63;;;3.46;84.14
21742;BME280;11033;47.490;11.116;2022-11-20T05:05:56;92624.69;;;3.41;85.17
21742;BME280;11033;47.490;11.116;2022-11-20T05:08:21;92622.56;;;3.44;84.27
21742;BME280;11033;47.490;11.116;2022-11-20T05:10:46;92620.78;;;3.45;84.20
21742;BME280;11033;47.490;11.116;2022-11-20T05:13:12;92619.13;;;3.36;84.58
21742;BME280;11033;47.490;11.116;2022-11-20T05:15:37;92624.97;;;3.30;85.32
21742;BME280;11033;47.490;11.116;2022-11-20T05:18:02;92637.03;;;3.31;85.38
21742;BME280;11033;47.490;11.116;2022-11-20T05:20:28;92627.44;;;3.31;85.64
21742;BME280;11033;47.490;11.116;2022-11-20T05:22:56;92630.38;;;3.36;85.06
21742;BME280;11033;47.490;11.116;2022-11-20T05:25:22;92629.56;;;3.36;84.62
21742;BME280;11033;47.490;11.116;2022-11-20T05:27:47;92623.69;;;3.26;85.67
21742;BME280;11033;47.490;11.116;2022-11-20T05:30:13;92630.19;;;3.30;85.96
21742;BME280;11033;47.490;11.116;2022-11-20T05:32:38;92622.06;;;3.41;83.40
21742;BME280;11033;47.490;11.116;2022-11-20T05:35:04;92634.94;;;3.42;83.98
21742;BME280;11033;47.490;11.116;2022-11-20T05:37:29;92637.03;;;3.31;85.68
21742;BME280;11033;47.490;11.116;2022-11-20T05:39:54;92629.06;;;3.32;85.79
21742;BME280;11033;47.490;11.116;2022-11-20T05:42:19;92641.91;;;3.34;85.56
21742;BME280;11033;47.490;11.116;2022-11-20T05:44:58;92640.91;;;3.27;87.41
21742;BME280;11033;47.490;11.116;2022-11-20T05:47:23;92648.56;;;3.28;86.45
21742;BME280;11033;47.490;11.116;2022-11-20T05:49:49;92636.38;;;3.37;85.28
21742;BME280;11033;47.490;11.116;2022-11-20T05:52:14;92639.31;;;3.42;84.24
21742;BME280;11033;47.490;11.116;2022-11-20T05:54:39;92647.59;;;3.37;85.34
21742;BME280;11033;47.490;11.116;2022-11-20T05:57:04;92651.69;;;3.40;84.90
21742;BME280;11033;47.490;11.116;2022-11-20T05:59:30;92650.22;;;3.37;87.21
21742;BME280;11033;47.490;11.116;2022-11-20T06:01:55;92654.44;;;3.38;86.87
21742;BME280;11033;47.490;11.116;2022-11-20T06:04:20;92654.59;;;3.37;86.39
21742;BME280;11033;47.490;11.116;2022-11-20T06:06:46;92661.91;;;3.33;86.02
21742;BME280;11033;47.490;11.116;2022-11-20T06:09:11;92657.84;;;3.31;86.10
21742;BME280;11033;47.490;11.116;2022-11-20T06:11:36;92664.53;;;3.41;85.60
21742;BME280;11033;47.490;11.116;2022-11-20T06:14:01;92669.91;;;3.40;84.80
21742;BME280;11033;47.490;11.116;2022-11-20T06:16:27;92661.09;;;3.33;86.62
21742;BME280;11033;47.490;11.116;2022-11-20T06:18:52;92654.59;;;3.29;86.76
21742;BME280;11033;47.490;11.116;2022-11-20T06:21:19;92652.31;;;3.34;85.59
21742;BME280;11033;47.490;11.116;2022-11-20T06:23:46;92657.53;;;3.34;85.87
21742;BME280;11033;47.490;11.116;2022-11-20T06:26:14;92660.09;;;3.26;86.48
21742;BME280;11033;47.490;11.116;2022-11-20T06:28:40;92651.31;;;3.27;86.25
21742;BME280;11033;47.490;11.116;2022-11-20T06:31:06;92653.13;;;3.26;84.72
21742;BME280;11033;47.490;11.116;2022-11-20T06:33:32;92667.22;;;3.24;85.46
21742;BME280;11033;47.490;11.116;2022-11-20T06:35:58;92667.59;;;3.29;84.56
21742;BME280;11033;47.490;11.116;2022-11-20T06:38:25;92667.53;;;3.21;85.20
21742;BME280;11033;47.490;11.116;2022-11-20T06:40:51;92672.09;;;3.18;84.81
21742;BME280;11033;47.490;11.116;2022-11-20T06:43:16;92667.22;;;3.24;84.66
21742;BME280;11033;47.490;11.116;2022-11-20T06:45:41;92670.19;;;3.29;83.25
21742;BME280;11033;47.490;11.116;2022-11-20T06:48:07;92676.53;;;3.26;83.54
21742;BME280;11033;47.490;11.116;2022-11-20T06:50:33;92674.38;;;3.22;83.86
21742;BME280;11033;47.490;11.116;2022-11-20T06:53:01;92680.22;;;3.15;84.18
21742;BME280;11033;47.490;11.116;2022-11-20T06:55:28;92686.19;;;3.08;85.32
21742;BME280;11033;47.490;11.116;2022-11-20T06:57:53;92686.69;;;3.11;84.81
21742;BME280;11033;47.490;11.116;2022-11-20T07:00:18;92691.28;;;3.17;83.67
21742;BME280;11033;47.490;11.116;2022-11-20T07:02:43;92692.38;;;3.07;84.69
21742;BME280;11033;47.490;11.116;2022-11-20T07:05:09;92694.81;;;3.08;84.57
21742;BME280;11033;47.490;11.116;2022-11-20T07:07:34;92702.28;;;3.03;85.86
21742;BME280;11033;47.490;11.116;2022-11-20T07:09:59;92696.13;;;3.12;84.21
21742;BME280;11033;47.490;11.116;2022-11-20T07:12:25;92705.56;;;3.13;85.57
21742;BME280;11033;47.490;11.116;2022-11-20T07:14:50;92691.41;;;3.08;85.01
21742;BME280;11033;47.490;11.116;2022-11-20T07:17:15;92707.16;;;3.06;85.74
21742;BME280;11033;47.490;11.116;2022-11-20T07:19:40;92713.00;;;3.00;86.94
21742;BME280;11033;47.490;11.116;2022-11-20T07:22:08;92704.91;;;3.11;85.19
21742;BME280;11033;47.490;11.116;2022-11-20T07:24:33;92713.69;;;3.10;86.56
21742;BME280;11033;47.490;11.116;2022-11-20T07:26:58;92723.06;;;2.95;87.43
21742;BME280;11033;47.490;11.116;2022-11-20T07:29:24;92714.69;;;3.17;86.03
21742;BME280;11033;47.490;11.116;2022-11-20T07:31:49;92721.94;;;3.32;84.61
21742;BME280;11033;47.490;11.116;2022-11-20T07:34:14;92727.13;;;3.32;84.83
21742;BME280;11033;47.490;11.116;2022-11-20T07:36:39;92721.75;;;3.25;85.49
21742;BME280;11033;47.490;11.116;2022-11-20T07:39:05;92722.59;;;3.34;85.72
21742;BME280;11033;47.490;11.116;2022-11-20T07:41:30;92721.31;;;3.38;85.17
21742;BME280;11033;47.490;11.116;2022-11-20T07:43:56;92724.41;;;3.41;85.45
21742;BME280;11033;47.490;11.116;2022-11-20T07:46:21;92726.19;;;3.41;85.77
21742;BME280;11033;47.490;11.116;2022-11-20T07:48:46;92733.78;;;3.26;87.26
21742;BME280;11033;47.490;11.116;2022-11-20T07:51:12;92734.69;;;3.51;85.24
21742;BME280;11033;47.490;11.116;2022-11-20T07:53:38;92733.41;;;3.63;84.22
21742;BME280;11033;47.490;11.116;2022-11-20T07:56:03;92722.19;;;3.71;84.95
21742;BME280;11033;47.490;11.116;2022-11-20T07:58:30;92723.66;;;3.73;83.83
21742;BME280;11033;47.490;11.116;2022-11-20T08:00:55;92724.16;;;3.77;84.47
21742;BME280;11033;47.490;11.116;2022-11-20T08:03:21;92731.50;;;3.81;84.04
21742;BME280;11033;47.490;11.116;2022-11-20T08:05:46;92727.75;;;3.84;83.88
21742;BME280;11033;47.490;11.116;2022-11-20T08:08:11;92725.38;;;3.99;83.58
21742;BME280;11033;47.490;11.116;2022-11-20T08:10:37;92722.44;;;4.10;83.17
21742;BME280;11033;47.490;11.116;2022-11-20T08:13:02;92729.28;;;4.27;82.24
21742;BME280;11033;47.490;11.116;2022-11-20T08:15:50;92719.50;;;4.37;83.52
21742;BME280;11033;47.490;11.116;2022-11-20T08:18:16;92724.72;;;4.78;82.29
21742;BME280;11033;47.490;11.116;2022-11-20T08:20:42;92730.69;;;5.58;80.54
21742;BME280;11033;47.490;11.116;2022-11-20T08:23:07;92725.97;;;5.93;78.72
21742;BME280;11033;47.490;11.116;2022-11-20T08:25:34;92716.06;;;6.11;77.54
21742;BME280;11033;47.490;11.116;2022-11-20T08:28:03;92720.41;;;6.19;77.91
21742;BME280;11033;47.490;11.116;2022-11-20T08:30:28;92722.84;;;6.20;77.81
21742;BME280;11033;47.490;11.116;2022-11-20T08:32:54;92719.41;;;6.43;77.65
21742;BME280;11033;47.490;11.116;2022-11-20T08:35:20;92723.94;;;6.72;74.95
21742;BME280;11033;47.490;11.116;2022-11-20T08:37:48;92718.25;;;7.20;75.94
21742;BME280;11033;47.490;11.116;2022-11-20T08:40:15;92725.81;;;7.59;74.66
21742;BME280;11033;47.490;11.116;2022-11-20T08:42:50;92722.84;;;7.33;73.92
21742;BME280;11033;47.490;11.116;2022-11-20T08:45:17;92710.16;;;8.17;73.89
21742;BME280;11033;47.490;11.116;2022-11-20T08:47:43;92714.25;;;8.41;72.60
21742;BME280;11033;47.490;11.116;2022-11-20T08:50:09;92705.59;;;9.11;69.74
21742;BME280;11033;47.490;11.116;2022-11-20T08:52:35;92708.19;;;9.11;72.04
21742;BME280;11033;47.490;11.116;2022-11-20T08:55:01;92712.47;;;9.12;67.30
21742;BME280;11033;47.490;11.116;2022-11-20T08:57:26;92710.09;;;8.96;69.25
21742;BME280;11033;47.490;11.116;2022-11-20T08:59:51;92696.53;;;9.20;69.56
21742;BME280;11033;47.490;11.116;2022-11-20T09:02:16;92710.41;;;9.42;66.38
21742;BME280;11033;47.490;11.116;2022-11-20T09:04:42;92705.13;;;9.35;65.32
21742;BME280;11033;47.490;11.116;2022-11-20T09:07:07;92692.59;;;9.37;67.63
21742;BME280;11033;47.490;11.116;2022-11-20T09:09:32;92712.34;;;9.27;68.91
21742;BME280;11033;47.490;11.116;2022-11-20T09:11:58;92700.56;;;9.16;64.61
21742;BME280;11033;47.490;11.116;2022-11-20T09:14:23;92703.63;;;9.19;65.39
21742;BME280;11033;47.490;11.116;2022-11-20T09:16:54;92716.53;;;9.49;67.03
21742;BME280;11033;47.490;11.116;2022-11-20T09:19:20;92702.00;;;10.88;65.15
21742;BME280;11033;47.490;11.116;2022-11-20T09:21:45;92692.19;;;11.55;62.01
21742;BME280;11033;47.490;11.116;2022-11-20T09:24:10;92697.34;;;10.70;60.18
21742;BME280;11033;47.490;11.116;2022-11-20T09:26:36;92704.63;;;11.01;60.78
21742;BME280;11033;47.490;11.116;2022-11-20T09:29:01;92700.47;;;11.91;58.63
21742;BME280;11033;47.490;11.116;2022-11-20T09:31:26;92695.84;;;12.25;56.54
21742;BME280;11033;47.490;11.116;2022-11-20T09:33:52;92693.13;;;12.45;55.04
21742;BME280;11033;47.490;11.116;2022-11-20T09:36:17;92693.81;;;13.21;55.65
21742;BME280;11033;47.490;11.116;2022-11-20T09:38:44;92687.31;;;13.67;50.76
21742;BME280;11033;47.490;11.116;2022-11-20T09:41:26;92685.50;;;14.52;49.09
21742;BME280;11033;47.490;11.116;2022-11-20T09:46:50;92672.06;;;16.01;48.65
21742;BME280;11033;47.490;11.116;2022-11-20T09:52:09;92667.91;;;15.11;46.68
21742;BME280;11033;47.490;11.116;2022-11-20T09:54:40;92669.13;;;17.28;47.13
21742;BME280;11033;47.490;11.116;2022-11-20T09:57:11;92655.56;;;18.01;41.99
21742;BME280;11033;47.490;11.116;2022-11-20T09:59:42;92643.69;;;18.31;43.89
21742;BME280;11033;47.490;11.116;2022-11-20T10:02:35;92644.34;;;17.61;38.63
21742;BME280;11033;47.490;11.116;2022-11-20T10:05:08;92642.78;;;19.23;41.38
21742;BME280;11033;47.490;11.116;2022-11-20T10:07:44;92632.88;;;20.50;37.93
21742;BME280;11033;47.490;11.116;2022-11-20T10:10:18;92632.41;;;20.11;35.58
21742;BME280;11033;47.490;11.116;2022-11-20T10:27:03;92603.94;;;22.35;32.67
21742;BME280;11033;47.490;11.116;2022-11-20T10:29:34;92621.53;;;17.87;29.83
21742;BME280;11033;47.490;11.116;2022-11-20T10:32:02;92611.63;;;21.31;33.60
21742;BME280;11033;47.490;11.116;2022-11-20T10:34:52;92619.56;;;22.23;30.86
21742;BME280;11033;47.490;11.116;2022-11-20T10:40:14;92611.53;;;23.21;30.19
21742;BME280;11033;47.490;11.116;2022-11-20T10:45:47;92594.94;;;23.14;28.71
21742;BME280;11033;47.490;11.116;2022-11-20T10:48:25;92591.19;;;24.07;26.97
21742;BME280;11033;47.490;11.116;2022-11-20T10:56:30;92588.41;;;23.25;27.14
21742;BME280;11033;47.490;11.116;2022-11-20T10:59:25;92582.63;;;27.16;25.26
21742;BME280;11033;47.490;11.116;2022-11-20T11:01:52;92580.09;;;27.20;24.39
21742;BME280;11033;47.490;11.116;2022-11-20T11:04:36;92572.38;;;26.09;21.97
21742;BME280;11033;47.490;11.116;2022-11-20T11:07:07;92564.06;;;28.22;22.20
21742;BME280;11033;47.490;11.116;2022-11-20T11:09:42;92570.06;;;28.50;26.26
21742;BME280;11033;47.490;11.116;2022-11-20T11:12:09;92577.84;;;28.34;25.25
21742;BME280;11033;47.490;11.116;2022-11-20T11:14:49;92576.50;;;26.75;20.28
21742;BME280;11033;47.490;11.116;2022-11-20T11:20:14;92580.56;;;26.86;22.87
21742;BME280;11033;47.490;11.116;2022-11-20T11:22:53;92586.94;;;30.71;23.09
21742;BME280;11033;47.490;11.116;2022-11-20T11:25:31;92589.69;;;27.62;21.33
21742;BME280;11033;47.490;11.116;2022-11-20T11:30:44;92575.41;;;23.95;21.61
21742;BME280;11033;47.490;11.116;2022-11-20T11:33:17;92567.09;;;26.59;23.94
21742;BME280;11033;47.490;11.116;2022-11-20T11:35:48;92568.78;;;29.04;21.24
21742;BME280;11033;47.490;11.116;2022-11-20T11:38:17;92567.50;;;27.60;22.58
21742;BME280;11033;47.490;11.116;2022-11-20T11:40:44;92569.34;;;25.83;21.52
21742;BME280;11033;47.490;11.116;2022-11-20T11:43:20;92560.31;;;27.78;21.11
21742;BME280;11033;47.490;11.116;2022-11-20T11:54:28;92557.75;;;23.60;21.41
21742;BME280;11033;47.490;11.116;2022-11-20T11:56:59;92559.75;;;22.17;22.39
21742;BME280;11033;47.490;11.116;2022-11-20T11:59:41;92539.25;;;21.62;22.12
21742;BME280;11033;47.490;11.116;2022-11-20T12:02:24;92564.13;;;23.93;22.52
21742;BME280;11033;47.490;11.116;2022-11-20T12:08:01;92549.94;;;27.71;19.42
21742;BME280;11033;47.490;11.116;2022-11-20T12:13:05;92543.78;;;21.66;23.80
21742;BME280;11033;47.490;11.116;2022-11-20T12:15:44;92557.44;;;21.75;23.47
21742;BME280;11033;47.490;11.116;2022-11-20T12:18:15;92550.34;;;24.66;23.88
21742;BME280;11033;47.490;11.116;2022-11-20T12:20:48;92560.50;;;24.75;19.22
21742;BME280;11033;47.490;11.116;2022-11-20T12:23:24;92542.59;;;26.14;21.85
21742;BME280;11033;47.490;11.116;2022-11-20T12:25:56;92547.84;;;21.08;23.82
21742;BME280;11033;47.490;11.116;2022-11-20T12:28:57;92553.28;;;19.52;26.08
21742;BME280;11033;47.490;11.116;2022-11-20T12:31:34;92556.97;;;25.63;21.13
21742;BME280;11033;47.490;11.116;2022-11-20T12:34:24;92545.69;;;20.79;22.39
21742;BME280;11033;47.490;11.116;2022-11-20T12:37:07;92553.75;;;17.78;25.57
21742;BME280;11033;47.490;11.116;2022-11-20T12:39:42;92549.38;;;22.99;21.30
21742;BME280;11033;47.490;11.116;2022-11-20T12:42:23;92551.16;;;25.23;20.84
21742;BME280;11033;47.490;11.116;2022-11-20T12:51:09;92538.31;;;23.05;21.49
21742;BME280;11033;47.490;11.116;2022-11-20T13:02:25;92533.44;;;27.14;20.12
21742;BME280;11033;47.490;11.116;2022-11-20T13:07:40;92522.34;;;23.19;23.07
21742;BME280;11033;47.490;11.116;2022-11-20T13:10:18;92521.75;;;25.08;20.30
21742;BME280;11033;47.490;11.116;2022-11-20T13:12:53;92521.88;;;22.24;23.08
21742;BME280;11033;47.490;11.116;2022-11-20T13:15:36;92515.47;;;23.66;21.14
21742;BME280;11033;47.490;11.116;2022-11-20T13:18:09;92513.53;;;22.69;23.08
21742;BME280;11033;47.490;11.116;2022-11-20T13:20:41;92490.81;;;26.62;20.24
21742;BME280;11033;47.490;11.116;2022-11-20T13:23:07;92506.06;;;25.10;21.23
21742;BME280;11033;47.490;11.116;2022-11-20T13:25:39;92501.09;;;27.85;20.05
21742;BME280;11033;47.490;11.116;2022-11-20T13:28:28;92496.38;;;26.79;19.62
21742;BME280;11033;47.490;11.116;2022-11-20T13:30:55;92481.03;;;23.10;23.89
21742;BME280;11033;47.490;11.116;2022-11-20T13:35:57;92481.81;;;21.73;22.39
21742;BME280;11033;47.490;11.116;2022-11-20T13:38:23;92486.56;;;19.78;26.74
21742;BME280;11033;47.490;11.116;2022-11-20T13:40:57;92482.34;;;17.58;28.30
21742;BME280;11033;47.490;11.116;2022-11-20T13:46:00;92497.34;;;16.36;28.72
21742;BME280;11033;47.490;11.116;2022-11-20T13:48:41;92499.03;;;14.82;30.44
21742;BME280;11033;47.490;11.116;2022-11-20T13:51:28;92494.91;;;14.21;31.49
21742;BME280;11033;47.490;11.116;2022-11-20T13:54:11;92488.22;;;14.72;29.89
21742;BME280;11033;47.490;11.116;2022-11-20T13:57:05;92486.56;;;13.94;32.05
21742;BME280;11033;47.490;11.116;2022-11-20T13:59:43;92489.06;;;13.77;34.58
21742;BME280;11033;47.490;11.116;2022-11-20T14:02:15;92487.16;;;13.18;33.83
21742;BME280;11033;47.490;11.116;2022-11-20T14:04:49;92490.97;;;12.42;33.38
21742;BME280;11033;47.490;11.116;2022-11-20T14:07:16;92479.72;;;13.08;33.59
21742;BME280;11033;47.490;11.116;2022-11-20T14:09:54;92480.44;;;12.97;32.94
21742;BME280;11033;47.490;11.116;2022-11-20T14:12:26;92477.53;;;13.05;33.42
21742;BME280;11033;47.490;11.116;2022-11-20T14:14:53;92489.72;;;15.43;31.82
21742;BME280;11033;47.490;11.116;2022-11-20T14:17:31;92477.03;;;17.80;29.09
21742;BME280;11033;47.490;11.116;2022-11-20T14:20:04;92471.06;;;18.21;28.71
21742;BME280;11033;47.490;11.116;2022-11-20T14:22:30;92469.84;;;16.14;29.78
21742;BME280;11033;47.490;11.116;2022-11-20T14:27:41;92474.06;;;12.86;36.72
21742;BME280;11033;47.490;11.116;2022-11-20T14:30:16;92476.59;;;12.38;37.81